createdAt,value
2023-01-20T00:01:43.134Z,100541.25
2023-01-20T00:04:11.064Z,100539.41
2023-01-20T00:06:38.966Z,100545.84
2023-01-20T00:09:06.973Z,100532.75
2023-01-20T00:11:35.190Z,100555.06
2023-01-20T00:14:04.522Z,100554.00
2023-01-20T00:16:33.456Z,100533.22
2023-01-20T00:19:01.375Z,100555.06
2023-01-20T00:21:29.632Z,100557.78
2023-01-20T00:23:57.559Z,100549.81
2023-01-20T00:26:25.800Z,100558.59
2023-01-20T00:28:54.980Z,100562.38
2023-01-20T00:31:25.825Z,100565.91
2023-01-20T00:33:54.151Z,100571.34
2023-01-20T00:36:22.225Z,100570.50
2023-01-20T00:38:50.145Z,100566.97
2023-01-20T00:41:18.286Z,100393.28
2023-01-20T00:43:46.276Z,100568.84
2023-01-20T00:46:14.285Z,100574.28
2023-01-20T00:48:43.597Z,100571.56
2023-01-20T00:51:11.812Z,100578.88
2023-01-20T00:53:39.702Z,100576.16
2023-01-20T00:56:07.983Z,100577.84
2023-01-20T00:58:35.893Z,100578.03
2023-01-20T01:01:04.147Z,100552.94
2023-01-20T01:03:32.293Z,100566.03
2023-01-20T01:06:09.170Z,100581.59
2023-01-20T01:08:37.087Z,100579.38
2023-01-20T01:11:05.625Z,100593.31
2023-01-20T01:13:33.680Z,100595.19
2023-01-20T01:16:01.739Z,100594.34
2023-01-20T01:18:29.712Z,100598.72
2023-01-20T01:20:57.928Z,100598.94
2023-01-20T01:23:27.253Z,100607.72
2023-01-20T01:25:55.142Z,100602.75
2023-01-20T01:28:23.042Z,100599.88
2023-01-20T01:30:51.265Z,100593.66
2023-01-20T01:33:19.376Z,100623.41
2023-01-20T01:35:56.004Z,100605.94
2023-01-20T01:38:24.193Z,100623.41
2023-01-20T01:40:53.939Z,100628.84
2023-01-20T01:43:23.516Z,100629.66
2023-01-20T01:45:51.484Z,100628.00
2023-01-20T01:48:19.705Z,100635.34
2023-01-20T01:50:49.541Z,100593.13
2023-01-20T01:53:17.431Z,100639.69
2023-01-20T01:55:47.951Z,100630.72
2023-01-20T01:58:18.918Z,100639.94
2023-01-20T02:00:47.149Z,100644.53
2023-01-20T02:03:15.072Z,100641.00
2023-01-20T02:05:43.188Z,100643.50
2023-01-20T02:08:11.040Z,100634.94
2023-01-20T02:10:38.900Z,100644.53
2023-01-20T02:13:07.161Z,100639.31
2023-01-20T02:15:39.657Z,100642.88
2023-01-20T02:18:14.648Z,100616.69
2023-01-20T02:21:22.728Z,100644.75
2023-01-20T02:24:01.920Z,100636.06
2023-01-20T02:26:41.590Z,100643.91
2023-01-20T02:29:30.404Z,100657.50
2023-01-20T02:32:10.261Z,100662.94
2023-01-20T02:34:39.609Z,100598.66
2023-01-20T02:37:10.693Z,100662.09
2023-01-20T02:39:41.450Z,100650.91
2023-01-20T02:42:10.439Z,100677.34
2023-01-20T02:44:41.390Z,100670.25
2023-01-20T02:47:12.636Z,100669.41
2023-01-20T02:49:41.548Z,100678.41
2023-01-20T02:52:12.740Z,100684.69
2023-01-20T02:54:41.786Z,100675.69
2023-01-20T02:57:11.613Z,100678.41
2023-01-20T02:59:41.980Z,100674.84
2023-01-20T03:02:12.350Z,100674.03
2023-01-20T03:04:41.937Z,100675.94
2023-01-20T03:07:09.835Z,100675.94
2023-01-20T03:09:39.094Z,100674.03
2023-01-20T03:12:10.981Z,100680.28
2023-01-20T03:14:38.873Z,100686.78
2023-01-20T03:17:06.737Z,100684.69
2023-01-20T03:19:36.096Z,100687.38
2023-01-20T03:22:04.278Z,100683.00
2023-01-20T03:24:32.133Z,100680.28
2023-01-20T03:27:00.176Z,100675.75
2023-01-20T03:29:29.103Z,100612.88
2023-01-20T03:31:58.776Z,100690.31
2023-01-20T03:34:27.265Z,100659.31
2023-01-20T03:36:56.547Z,100695.53
2023-01-20T03:39:24.566Z,100699.31
2023-01-20T03:42:05.985Z,100690.94
2023-01-20T03:44:38.908Z,100631.03
2023-01-20T03:47:09.689Z,100654.09
2023-01-20T03:49:39.343Z,100694.50
2023-01-20T03:52:11.817Z,100694.50
2023-01-20T03:54:43.196Z,100690.97
2023-01-20T03:57:12.598Z,100697.44
2023-01-20T03:59:41.682Z,100703.69
2023-01-20T04:02:09.884Z,100707.25
2023-01-20T04:04:39.525Z,100709.97
2023-01-20T04:07:09.316Z,100713.72
2023-01-20T04:09:39.387Z,100664.16
2023-01-20T04:12:07.920Z,100709.97
2023-01-20T04:14:36.133Z,100708.53
2023-01-20T04:17:04.447Z,100705.19
2023-01-20T04:19:32.413Z,100717.94
2023-01-20T04:22:02.086Z,100639.84
2023-01-20T04:24:32.654Z,100712.72
2023-01-20T04:27:00.547Z,100717.31
2023-01-20T04:29:28.471Z,100715.66
2023-01-20T04:32:00.162Z,100712.97
2023-01-20T04:34:28.140Z,100714.00
2023-01-20T04:36:56.022Z,100717.31
2023-01-20T04:39:23.969Z,100728.19
2023-01-20T04:41:53.630Z,100722.75
2023-01-20T04:44:21.522Z,100727.38
2023-01-20T04:46:49.427Z,100726.28
2023-01-20T04:49:17.341Z,100724.41
2023-01-20T04:51:45.545Z,100729.25
2023-01-20T04:54:13.474Z,100734.44
2023-01-20T04:56:41.417Z,100732.56
2023-01-20T04:59:10.649Z,100738.00
2023-01-20T05:01:38.924Z,100738.00
2023-01-20T05:04:06.828Z,100742.38
2023-01-20T05:06:35.336Z,100739.03
2023-01-20T05:09:03.261Z,100742.38
2023-01-20T05:11:31.431Z,100744.47
2023-01-20T05:13:59.288Z,100747.00
2023-01-20T05:16:31.982Z,100749.69
2023-01-20T05:18:59.935Z,100753.47
2023-01-20T05:21:28.171Z,100752.41
2023-01-20T05:23:56.224Z,100748.88
2023-01-20T05:26:24.230Z,100757.84
2023-01-20T05:28:52.135Z,100749.69
2023-01-20T05:31:21.420Z,100759.53
2023-01-20T05:33:50.730Z,100771.22
2023-01-20T05:36:18.603Z,100762.25
2023-01-20T05:38:46.468Z,100770.41
2023-01-20T05:41:14.655Z,100773.09
2023-01-20T05:43:42.573Z,100773.94
2023-01-20T05:46:10.581Z,100772.91
2023-01-20T05:48:38.477Z,100776.66
2023-01-20T05:51:08.353Z,100779.38
2023-01-20T05:53:36.549Z,100782.94
2023-01-20T05:56:05.532Z,100785.66
2023-01-20T05:58:33.628Z,100782.94
2023-01-20T06:01:08.152Z,100781.06
2023-01-20T06:03:36.218Z,100785.66
2023-01-20T06:06:04.426Z,100789.19
2023-01-20T06:08:33.968Z,100768.19
2023-01-20T06:11:02.347Z,100780.88
2023-01-20T06:13:30.302Z,100796.28
2023-01-20T06:15:58.225Z,100799.00
2023-01-20T06:18:26.184Z,100769.47
2023-01-20T06:20:58.011Z,100787.75
2023-01-20T06:23:26.151Z,100807.16
2023-01-20T06:26:01.254Z,100809.06
2023-01-20T06:28:29.312Z,100791.56
2023-01-20T06:31:01.934Z,100809.84
2023-01-20T06:33:30.019Z,100811.78
2023-01-20T06:35:57.915Z,100819.91
2023-01-20T06:38:25.901Z,100816.38
2023-01-20T06:40:58.004Z,100815.53
2023-01-20T06:43:27.370Z,100814.69
2023-01-20T06:45:55.316Z,100821.81
2023-01-20T06:48:23.217Z,100812.56
2023-01-20T06:50:51.489Z,100821.81
2023-01-20T06:53:19.359Z,100818.84
2023-01-20T06:55:56.028Z,100828.88
2023-01-20T06:58:25.354Z,100830.78
2023-01-20T07:00:55.077Z,100830.78
2023-01-20T07:03:23.034Z,100839.75
2023-01-20T07:05:56.091Z,100846.03
2023-01-20T07:08:24.099Z,100848.72
2023-01-20T07:10:52.217Z,100849.81
2023-01-20T07:13:20.109Z,100787.28
2023-01-20T07:15:47.990Z,100856.88
2023-01-20T07:18:17.227Z,100853.56
2023-01-20T07:20:45.391Z,100869.63
2023-01-20T07:23:13.317Z,100866.91
2023-01-20T07:25:41.278Z,100829.81
2023-01-20T07:28:09.269Z,100868.00
2023-01-20T07:30:37.188Z,100868.00
2023-01-20T07:33:06.013Z,100796.69
2023-01-20T07:35:35.361Z,100868.81
2023-01-20T07:38:04.538Z,100875.06
2023-01-20T07:40:32.407Z,100873.19
2023-01-20T07:43:00.587Z,100855.06
2023-01-20T07:45:28.561Z,100886.16
2023-01-20T07:47:56.884Z,100884.06
2023-01-20T07:50:24.762Z,100887.84
2023-01-20T07:52:56.381Z,100891.59
2023-01-20T07:55:25.182Z,100896.00
2023-01-20T07:57:53.157Z,100896.00
2023-01-20T08:00:21.553Z,100904.94
2023-01-20T08:02:49.713Z,100892.06
2023-01-20T08:05:17.850Z,100906.03
2023-01-20T08:07:45.769Z,100908.50
2023-01-20T08:10:15.030Z,100907.66
2023-01-20T08:12:43.150Z,100915.81
2023-01-20T08:15:12.290Z,100906.69
2023-01-20T08:17:40.208Z,100921.25
2023-01-20T08:20:09.766Z,100914.19
2023-01-20T08:22:37.977Z,100908.97
2023-01-20T08:25:06.393Z,100882.69
2023-01-20T08:27:35.672Z,100919.38
2023-01-20T08:30:03.629Z,100848.66
2023-01-20T08:32:31.802Z,100925.66
2023-01-20T08:34:59.690Z,100931.09
2023-01-20T08:37:27.594Z,100935.69
2023-01-20T08:39:55.479Z,100938.41
2023-01-20T08:42:23.615Z,100943.00
2023-01-20T08:44:54.497Z,100940.28
2023-01-20T08:47:23.840Z,100925.47
2023-01-20T08:49:53.771Z,100934.88
2023-01-20T08:52:21.953Z,100947.63
2023-01-20T08:54:52.944Z,100944.06
2023-01-20T08:57:20.890Z,100958.25
2023-01-20T08:59:50.727Z,100958.25
2023-01-20T09:02:20.321Z,100953.84
2023-01-20T09:04:50.083Z,100955.53
2023-01-20T09:07:18.076Z,100953.84
2023-01-20T09:09:45.979Z,100956.56
2023-01-20T09:12:14.204Z,100954.69
2023-01-20T09:14:42.096Z,100925.06
2023-01-20T09:17:10.010Z,100956.56
2023-01-20T09:19:39.319Z,100960.13
2023-01-20T09:22:07.497Z,100962.84
2023-01-20T09:24:35.367Z,100959.53
2023-01-20T09:27:03.307Z,100968.28
2023-01-20T09:29:31.791Z,100962.66
2023-01-20T09:32:00.016Z,100967.25
2023-01-20T09:34:29.509Z,100960.97
2023-01-20T09:37:20.081Z,100961.81
2023-01-20T09:40:05.867Z,100966.41
2023-01-20T09:42:54.784Z,100960.97
2023-01-20T09:45:27.125Z,100969.97
2023-01-20T09:47:57.439Z,100844.97
2023-01-20T09:50:49.648Z,100969.97
2023-01-20T09:53:35.361Z,100974.56
2023-01-20T09:56:08.318Z,100911.97
2023-01-20T09:58:38.794Z,100863.72
2023-01-20T10:01:11.008Z,100974.34
2023-01-20T10:03:42.021Z,100973.72
2023-01-20T10:06:12.705Z,100923.00
2023-01-20T10:09:03.630Z,100976.22
2023-01-20T10:11:33.310Z,100961.22
2023-01-20T10:14:04.551Z,100961.00
2023-01-20T10:16:34.731Z,100973.50
2023-01-20T10:19:03.106Z,100968.50
2023-01-20T10:21:34.417Z,100977.28
2023-01-20T10:24:05.488Z,100864.56
2023-01-20T10:26:35.175Z,100976.22
2023-01-20T10:29:04.025Z,100973.50
2023-01-20T10:31:34.664Z,100964.53
2023-01-20T10:34:07.154Z,100963.47
2023-01-20T10:36:35.059Z,100962.66
2023-01-20T10:39:06.067Z,100964.31
2023-01-20T10:41:37.591Z,100950.94
2023-01-20T10:44:06.959Z,100967.03
2023-01-20T10:46:42.677Z,100963.47
2023-01-20T10:49:33.155Z,100960.75
2023-01-20T10:52:10.524Z,100908.38
2023-01-20T10:54:42.723Z,100847.03
2023-01-20T10:57:12.338Z,100963.47
2023-01-20T10:59:43.267Z,100958.88
2023-01-20T11:02:16.497Z,100895.25
2023-01-20T11:04:44.489Z,100958.88
2023-01-20T11:07:16.572Z,100924.66
2023-01-20T11:09:45.821Z,100957.84
2023-01-20T11:12:17.036Z,100939.47
2023-01-20T11:14:44.959Z,100950.72
2023-01-20T11:17:15.488Z,100950.72
2023-01-20T11:19:51.629Z,100954.28
2023-01-20T11:22:24.167Z,100951.56
2023-01-20T11:24:56.200Z,100954.28
2023-01-20T11:27:25.366Z,100954.50
2023-01-20T11:29:54.490Z,100963.28
2023-01-20T11:32:33.974Z,100957.00
2023-01-20T11:35:02.001Z,100872.25
2023-01-20T11:37:36.688Z,100939.47
2023-01-20T11:40:19.949Z,100954.28
2023-01-20T11:42:48.669Z,100939.47
2023-01-20T11:45:28.128Z,100955.13
2023-01-20T11:48:04.528Z,100928.00
2023-01-20T11:50:39.667Z,100941.75
2023-01-20T11:53:18.218Z,100950.53
2023-01-20T11:55:52.408Z,100943.44
2023-01-20T11:58:21.515Z,100955.97
2023-01-20T12:00:50.955Z,100948.03
2023-01-20T12:03:45.957Z,100900.25
2023-01-20T12:06:16.157Z,100951.56
2023-01-20T12:08:46.871Z,100918.59
2023-01-20T12:11:17.833Z,100953.25
2023-01-20T12:14:06.938Z,100906.50
2023-01-20T12:16:34.899Z,100950.53
2023-01-20T12:19:04.768Z,100925.06
2023-01-20T12:21:35.896Z,100915.03
2023-01-20T12:24:05.874Z,100950.53
2023-01-20T12:26:35.627Z,100902.94
2023-01-20T12:29:04.181Z,100940.47
2023-01-20T12:31:32.621Z,100951.34
2023-01-20T12:34:01.266Z,100947.81
2023-01-20T12:36:50.237Z,100950.53
2023-01-20T12:39:46.097Z,100941.31
2023-01-20T12:42:49.391Z,100958.44
2023-01-20T12:45:22.686Z,100954.88
2023-01-20T12:47:58.464Z,100880.00
2023-01-20T12:50:31.264Z,100854.75
2023-01-20T12:53:05.701Z,100955.97
2023-01-20T12:55:40.688Z,100971.19
2023-01-20T12:58:15.546Z,100961.41
2023-01-20T13:01:01.228Z,100971.19
2023-01-20T13:03:46.730Z,100915.50
2023-01-20T13:06:45.601Z,100973.06
2023-01-20T13:09:29.599Z,100922.59
2023-01-20T13:12:03.259Z,100972.03
2023-01-20T13:14:40.516Z,100974.75
2023-01-20T13:17:14.276Z,100964.72
2023-01-20T13:19:42.573Z,100975.59
2023-01-20T13:22:12.186Z,100979.34
2023-01-20T13:24:40.333Z,100975.78
2023-01-20T13:27:08.218Z,100971.19
2023-01-20T13:29:54.949Z,100978.50
2023-01-20T13:32:30.207Z,100979.34
2023-01-20T13:34:58.146Z,100982.06
2023-01-20T13:37:28.217Z,100972.25
2023-01-20T13:39:57.412Z,100977.69
2023-01-20T13:42:29.958Z,100985.63
2023-01-20T13:45:22.522Z,100972.03
2023-01-20T13:47:53.443Z,100976.63
2023-01-20T13:50:25.762Z,100976.63
2023-01-20T13:53:15.991Z,100977.47
2023-01-20T13:55:54.301Z,100988.13
2023-01-20T13:58:24.020Z,100979.97
2023-01-20T14:00:54.475Z,100976.88
2023-01-20T14:03:32.126Z,100990.00
2023-01-20T14:06:01.085Z,100993.78
2023-01-20T14:08:30.577Z,100994.59
2023-01-20T14:11:07.793Z,100998.16
2023-01-20T14:13:35.901Z,101009.88
2023-01-20T14:16:06.036Z,101011.75
2023-01-20T14:18:33.999Z,101012.59
2023-01-20T14:21:06.761Z,101012.38
2023-01-20T14:23:38.483Z,101008.81
2023-01-20T14:26:08.575Z,101012.38
2023-01-20T14:28:41.042Z,101011.53
2023-01-20T14:31:21.949Z,101009.66
2023-01-20T14:34:01.829Z,101009.66
2023-01-20T14:36:31.909Z,101003.00
2023-01-20T14:39:03.771Z,101019.69
2023-01-20T14:41:34.073Z,101022.41
2023-01-20T14:44:02.147Z,101016.34
2023-01-20T14:46:31.561Z,100959.16
2023-01-20T14:48:59.915Z,101029.72
2023-01-20T14:51:28.172Z,101039.75
2023-01-20T14:54:45.169Z,101038.72
2023-01-20T14:57:20.072Z,101046.25
2023-01-20T14:59:48.169Z,101028.69
2023-01-20T15:02:19.925Z,101052.50
2023-01-20T15:04:47.925Z,101032.25
2023-01-20T15:07:19.239Z,101050.84
2023-01-20T15:09:52.603Z,101061.50
2023-01-20T15:12:42.524Z,101046.25
2023-01-20T15:15:26.553Z,101067.97
2023-01-20T15:18:16.618Z,101069.84
2023-01-20T15:20:45.585Z,101072.56
2023-01-20T15:23:32.380Z,101055.88
2023-01-20T15:26:08.249Z,101085.31
2023-01-20T15:28:37.969Z,101088.88
2023-01-20T15:31:06.424Z,101094.31
2023-01-20T15:33:35.766Z,101093.28
2023-01-20T15:36:03.702Z,101101.44
2023-01-20T15:38:32.557Z,101066.13
2023-01-20T15:41:00.763Z,100986.72
2023-01-20T15:43:28.789Z,101108.53
2023-01-20T15:45:56.679Z,101108.53
2023-01-20T15:48:24.763Z,101117.53
2023-01-20T15:50:56.272Z,101120.44
2023-01-20T15:53:24.264Z,101120.25
2023-01-20T15:55:52.540Z,101129.25
2023-01-20T15:58:27.917Z,101129.25
2023-01-20T16:00:56.257Z,101137.38
2023-01-20T16:03:24.483Z,101143.88
2023-01-20T16:05:52.708Z,101145.53
2023-01-20T16:08:23.032Z,101086.78
2023-01-20T16:10:50.951Z,101148.47
2023-01-20T16:13:18.857Z,101158.28
2023-01-20T16:15:46.742Z,101160.16
2023-01-20T16:18:15.518Z,101162.03
2023-01-20T16:20:44.143Z,101143.66
2023-01-20T16:23:12.141Z,101165.59
2023-01-20T16:25:41.507Z,101171.03
2023-01-20T16:28:15.450Z,101164.75
2023-01-20T16:30:43.808Z,101173.75
2023-01-20T16:33:19.026Z,101170.00
2023-01-20T16:35:46.973Z,101181.06
2023-01-20T16:38:15.763Z,101176.66
2023-01-20T16:40:49.541Z,101158.69
2023-01-20T16:43:17.664Z,101178.34
2023-01-20T16:45:45.756Z,101182.09
2023-01-20T16:48:13.699Z,101174.78
2023-01-20T16:50:41.872Z,101184.81
2023-01-20T16:53:11.009Z,101177.28
2023-01-20T16:55:39.109Z,101199.25
2023-01-20T16:58:08.577Z,101203.00
2023-01-20T17:00:36.457Z,101206.56
2023-01-20T17:03:04.796Z,101215.56
2023-01-20T17:05:32.695Z,101212.81
2023-01-20T17:08:00.699Z,101225.59
2023-01-20T17:10:29.559Z,101225.59
2023-01-20T17:12:57.761Z,101228.31
2023-01-20T17:15:27.161Z,101238.34
2023-01-20T17:17:58.219Z,101235.00
2023-01-20T17:20:26.370Z,101233.75
2023-01-20T17:22:55.395Z,101242.72
2023-01-20T17:25:23.551Z,101233.31
2023-01-20T17:27:51.522Z,101254.25
2023-01-20T17:30:19.555Z,101264.09
2023-01-20T17:32:49.316Z,101224.31
2023-01-20T17:35:17.363Z,101269.50
2023-01-20T17:37:45.265Z,101280.38
2023-01-20T17:40:14.028Z,101275.16
2023-01-20T17:42:43.585Z,101280.59
2023-01-20T17:45:12.436Z,101286.03
2023-01-20T17:47:40.329Z,101293.34
2023-01-20T17:50:10.754Z,101261.06
2023-01-20T17:52:38.952Z,101292.50
2023-01-20T17:55:07.692Z,101280.16
2023-01-20T17:57:35.602Z,101296.88
2023-01-20T18:00:05.373Z,101305.03
2023-01-20T18:02:33.709Z,101306.06
2023-01-20T18:05:01.595Z,101310.66
2023-01-20T18:07:30.852Z,101318.81
2023-01-20T18:09:58.806Z,101325.09
2023-01-20T18:12:27.247Z,101329.50
2023-01-20T18:14:55.364Z,101337.66
2023-01-20T18:17:23.591Z,101336.38
2023-01-20T18:19:51.476Z,101340.78
2023-01-20T18:22:19.635Z,101336.19
2023-01-20T18:24:48.915Z,101348.56
2023-01-20T18:27:18.742Z,101354.59
2023-01-20T18:29:46.601Z,101359.00
2023-01-20T18:32:14.895Z,101355.25
2023-01-20T18:34:42.813Z,101361.53
2023-01-20T18:37:10.720Z,101369.44
2023-01-20T18:39:38.895Z,101347.06
2023-01-20T18:42:08.483Z,101367.38
2023-01-20T18:44:36.366Z,101369.25
2023-01-20T18:47:04.748Z,101379.47
2023-01-20T18:49:35.517Z,101368.59
2023-01-20T18:52:03.795Z,101377.00
2023-01-20T18:54:34.167Z,101383.28
2023-01-20T18:57:03.295Z,101387.03
2023-01-20T18:59:33.073Z,101386.19
2023-01-20T19:02:01.003Z,101395.19
2023-01-20T19:04:29.904Z,101387.88
2023-01-20T19:06:57.810Z,101391.44
2023-01-20T19:09:25.840Z,101385.53
2023-01-20T19:11:54.226Z,101386.38
2023-01-20T19:14:22.115Z,101382.81
2023-01-20T19:16:51.687Z,101407.72
2023-01-20T19:19:20.103Z,101406.47
2023-01-20T19:21:51.477Z,101396.59
2023-01-20T19:24:20.809Z,101420.06
2023-01-20T19:26:48.730Z,101424.47
2023-01-20T19:29:17.350Z,101387.56
2023-01-20T19:31:45.772Z,101432.63
2023-01-20T19:34:15.184Z,101435.34
2023-01-20T19:36:43.139Z,101428.41
2023-01-20T19:39:11.047Z,101438.69
2023-01-20T19:41:39.635Z,101422.56
2023-01-20T19:44:07.863Z,101415.22
2023-01-20T19:46:36.668Z,101449.56
2023-01-20T19:49:04.835Z,101450.41
2023-01-20T19:51:34.132Z,101452.28
2023-01-20T19:54:02.239Z,101465.88
2023-01-20T19:56:31.003Z,101459.63
2023-01-20T19:59:00.609Z,101447.44
2023-01-20T20:01:31.559Z,101469.63
2023-01-20T20:03:59.921Z,101475.06
2023-01-20T20:06:28.920Z,101453.25
2023-01-20T20:08:59.784Z,101431.63
2023-01-20T20:11:27.842Z,101496.81
2023-01-20T20:13:56.731Z,101493.25
2023-01-20T20:16:25.910Z,101500.56
2023-01-20T20:18:53.870Z,101504.97
2023-01-20T20:21:22.105Z,101513.97
2023-01-20T20:23:50.822Z,101512.94
2023-01-20T20:26:20.367Z,101519.41
2023-01-20T20:28:54.305Z,101522.97
2023-01-20T20:31:28.829Z,101524.84
2023-01-20T20:33:57.100Z,101536.56
2023-01-20T20:36:25.008Z,101531.97
2023-01-20T20:38:53.985Z,101540.13
2023-01-20T20:41:25.842Z,101353.41
2023-01-20T20:43:54.293Z,101534.19
2023-01-20T20:46:22.310Z,101541.53
2023-01-20T20:48:50.517Z,101543.41
2023-01-20T20:51:18.526Z,101564.09
2023-01-20T20:53:46.475Z,101569.75
2023-01-20T20:56:15.194Z,101574.41
2023-01-20T20:58:59.778Z,101572.47
2023-01-20T21:01:29.095Z,101578.16
2023-01-20T21:03:58.009Z,101582.75
2023-01-20T21:06:26.430Z,101578.09
2023-01-20T21:08:54.546Z,101594.44
2023-01-20T21:11:24.049Z,101592.78
2023-01-20T21:13:53.394Z,101583.72
2023-01-20T21:16:22.846Z,101597.34
2023-01-20T21:18:51.868Z,101519.22
2023-01-20T21:21:20.266Z,101611.97
2023-01-20T21:23:51.263Z,101607.56
2023-01-20T21:26:19.278Z,101590.53
2023-01-20T21:28:49.399Z,101616.81
2023-01-20T21:31:20.891Z,101628.50
2023-01-20T21:33:53.081Z,101629.31
2023-01-20T21:36:21.100Z,101626.81
2023-01-20T21:38:49.211Z,101626.81
2023-01-20T21:41:17.449Z,101631.41
2023-01-20T21:44:18.069Z,101643.13
2023-01-20T21:46:47.456Z,101639.75
2023-01-20T21:49:33.007Z,101647.72
2023-01-20T21:52:18.476Z,101643.31
2023-01-20T21:54:46.417Z,101635.53
2023-01-20T21:57:14.350Z,101657.09
2023-01-20T21:59:42.305Z,101661.69
2023-01-20T22:02:12.658Z,101657.06
2023-01-20T22:04:40.994Z,101663.78
2023-01-20T22:07:08.881Z,101669.41
2023-01-20T22:09:36.824Z,101675.69
2023-01-20T22:12:05.281Z,101669.16
2023-01-20T22:14:33.302Z,101695.56
2023-01-20T22:17:01.216Z,101692.84
2023-01-20T22:19:30.510Z,101692.78
2023-01-20T22:21:58.410Z,101712.06
2023-01-20T22:24:26.268Z,101703.91
2023-01-20T22:26:54.222Z,101715.63
2023-01-20T22:29:22.136Z,101716.47
2023-01-20T22:31:51.861Z,101722.75
2023-01-20T22:34:19.856Z,101719.38
2023-01-20T22:36:49.143Z,101728.38
2023-01-20T22:39:17.125Z,101728.38
2023-01-20T22:41:45.330Z,101721.38
2023-01-20T22:44:13.232Z,101741.09
2023-01-20T22:46:41.205Z,101737.53
2023-01-20T22:49:10.185Z,101732.69
2023-01-20T22:51:38.339Z,101745.50
2023-01-20T22:54:08.735Z,101750.75
2023-01-20T22:56:36.660Z,101756.38
2023-01-20T22:59:04.562Z,101754.69
2023-01-20T23:01:34.521Z,101713.22
2023-01-20T23:04:03.621Z,101658.75
2023-01-20T23:06:33.338Z,101711.53
2023-01-20T23:09:01.379Z,101768.28
2023-01-20T23:11:31.640Z,101775.59
2023-01-20T23:14:00.211Z,101736.91
2023-01-20T23:16:28.327Z,101775.59
2023-01-20T23:18:56.242Z,101745.16
2023-01-20T23:21:24.594Z,101781.03
2023-01-20T23:23:54.806Z,101773.09
2023-01-20T23:26:23.509Z,101778.53
2023-01-20T23:28:53.640Z,101778.72
2023-01-20T23:31:21.944Z,101779.38
2023-01-20T23:33:50.163Z,101775.16
2023-01-20T23:36:18.972Z,101787.72
2023-01-20T23:38:47.105Z,101789.59
2023-01-20T23:41:15.599Z,101793.16
2023-01-20T23:43:43.528Z,101790.63
2023-01-20T23:46:13.247Z,101796.91
2023-01-20T23:48:41.289Z,101808.59
2023-01-20T23:51:09.611Z,101782.34
2023-01-20T23:53:38.808Z,101812.34
2023-01-20T23:56:08.270Z,101723.31
2023-01-20T23:58:36.541Z,101813.38
